UAL50 LEMD-KEWR
Flight info
| Callsign | UAL50 |
|---|---|
| Flight time | N/A |
| Altitude | 31000 |
| Route | ZMR N733 DESAT DCT STG/N0463F320 DCT PASAS/M080F340 DCT 48N020W 50N030W/M080F360 52N040W 51N050W DCT ALLRY/N0463F360 DCT FROSS DCT KJOHN DCT HANAA/N0408F240 FLOSI4 |
| Aircraft | B764/H-SDE3FGHIM3RWXY/LB1 |
Departure
| Time | N/A |
|---|---|
| Airport | Adolfo Suárez Madrid–Barajas Airport (LEMD) |
Arrival
| Time | 2026-05-06 06:51 |
|---|---|
| Airport | Newark Liberty International Airport (KEWR) |
| Time | Latitude | Longitude | Altitude | Speed | Heading |
|---|---|---|---|---|---|
| 2026-05-06 02:14 | 50.96744 | -34.20848 | 36249 ft | 434 kts | 287° |
| 2026-05-06 02:15 | 50.98620 | -34.29909 | 36243 ft | 435 kts | 287° |
| 2026-05-06 02:15 | 51.00494 | -34.39004 | 36244 ft | 435 kts | 286° |
| 2026-05-06 02:16 | 51.02366 | -34.48135 | 36237 ft | 437 kts | 286° |
| 2026-05-06 02:16 | 51.04233 | -34.57278 | 36233 ft | 436 kts | 285° |
| 2026-05-06 02:17 | 51.06114 | -34.66545 | 36234 ft | 450 kts | 285° |
| 2026-05-06 02:17 | 51.08040 | -34.76064 | 36232 ft | 451 kts | 285° |
| 2026-05-06 02:18 | 51.09930 | -34.85452 | 36225 ft | 450 kts | 285° |
| 2026-05-06 02:18 | 51.11830 | -34.94942 | 36216 ft | 452 kts | 284° |
| 2026-05-06 02:19 | 51.13719 | -35.04419 | 36213 ft | 453 kts | 284° |
| 2026-05-06 02:19 | 51.15610 | -35.13959 | 36207 ft | 454 kts | 284° |
| 2026-05-06 02:20 | 51.18440 | -35.28312 | 36204 ft | 455 kts | 284° |
| 2026-05-06 02:21 | 51.20319 | -35.37902 | 36200 ft | 456 kts | 284° |
| 2026-05-06 02:21 | 51.22201 | -35.47566 | 36190 ft | 457 kts | 284° |
| 2026-05-06 02:22 | 51.24073 | -35.57216 | 36188 ft | 459 kts | 284° |
| 2026-05-06 02:22 | 51.25946 | -35.66922 | 36188 ft | 459 kts | 283° |
| 2026-05-06 02:23 | 51.27813 | -35.76651 | 36187 ft | 461 kts | 283° |
| 2026-05-06 02:23 | 51.29672 | -35.86386 | 36179 ft | 462 kts | 283° |
| 2026-05-06 02:24 | 51.31533 | -35.96188 | 36172 ft | 463 kts | 283° |
| 2026-05-06 02:24 | 51.33392 | -36.06020 | 36165 ft | 464 kts | 283° |
| 2026-05-06 02:25 | 51.35238 | -36.15846 | 36167 ft | 465 kts | 283° |
| 2026-05-06 02:25 | 51.37093 | -36.25763 | 36156 ft | 465 kts | 283° |
| 2026-05-06 02:26 | 51.38931 | -36.35638 | 36153 ft | 466 kts | 283° |
| 2026-05-06 02:26 | 51.40766 | -36.45560 | 36147 ft | 467 kts | 283° |
| 2026-05-06 02:27 | 51.42593 | -36.55488 | 36148 ft | 467 kts | 283° |
| 2026-05-06 02:27 | 51.44412 | -36.65425 | 36147 ft | 467 kts | 282° |
| 2026-05-06 02:28 | 51.46222 | -36.75367 | 36136 ft | 467 kts | 282° |
| 2026-05-06 02:28 | 51.48033 | -36.85367 | 36132 ft | 468 kts | 282° |
| 2026-05-06 02:29 | 51.49829 | -36.95346 | 36141 ft | 469 kts | 282° |
| 2026-05-06 02:29 | 51.51630 | -37.05402 | 36131 ft | 470 kts | 281° |
| 2026-05-06 02:30 | 51.53419 | -37.15448 | 36128 ft | 471 kts | 282° |
| 2026-05-06 02:30 | 51.55199 | -37.25500 | 36130 ft | 471 kts | 281° |
| 2026-05-06 02:31 | 51.56972 | -37.35569 | 36122 ft | 471 kts | 281° |
| 2026-05-06 02:31 | 51.58744 | -37.45691 | 36100 ft | 472 kts | 281° |
| 2026-05-06 02:32 | 51.60513 | -37.55852 | 36108 ft | 473 kts | 281° |
| 2026-05-06 02:32 | 51.62266 | -37.65974 | 36102 ft | 474 kts | 281° |
| 2026-05-06 02:33 | 51.64018 | -37.76154 | 36089 ft | 474 kts | 280° |
| 2026-05-06 02:33 | 51.64599 | -37.79545 | 36088 ft | 474 kts | 281° |
| 2026-05-06 02:34 | 51.67498 | -37.96552 | 36081 ft | 475 kts | 280° |
| 2026-05-06 02:34 | 51.69226 | -38.06778 | 36073 ft | 476 kts | 280° |
| 2026-05-06 02:35 | 51.70951 | -38.17037 | 36054 ft | 476 kts | 280° |
| 2026-05-06 02:35 | 51.72668 | -38.27308 | 36048 ft | 478 kts | 280° |
| 2026-05-06 02:36 | 51.74381 | -38.37620 | 36037 ft | 478 kts | 280° |
| 2026-05-06 02:36 | 51.76083 | -38.47927 | 36048 ft | 477 kts | 280° |
| 2026-05-06 02:37 | 51.77772 | -38.58218 | 36044 ft | 478 kts | 280° |
| 2026-05-06 02:37 | 51.79464 | -38.68592 | 36058 ft | 478 kts | 279° |
| 2026-05-06 02:38 | 51.81145 | -38.78960 | 36039 ft | 479 kts | 279° |
| 2026-05-06 02:38 | 51.82805 | -38.89263 | 36038 ft | 477 kts | 279° |
| 2026-05-06 02:39 | 51.84461 | -38.99610 | 36037 ft | 480 kts | 279° |
| 2026-05-06 02:39 | 51.86123 | -39.10055 | 36051 ft | 479 kts | 279° |
| 2026-05-06 02:40 | 51.87764 | -39.20432 | 36048 ft | 479 kts | 279° |
| 2026-05-06 02:40 | 51.89397 | -39.30825 | 36039 ft | 479 kts | 279° |
| 2026-05-06 02:41 | 51.91019 | -39.41208 | 36044 ft | 478 kts | 279° |
| 2026-05-06 02:41 | 51.92643 | -39.51683 | 36043 ft | 481 kts | 279° |
| 2026-05-06 02:42 | 51.94249 | -39.62096 | 36035 ft | 479 kts | 279° |
| 2026-05-06 02:42 | 51.95849 | -39.72544 | 36030 ft | 477 kts | 278° |
| 2026-05-06 02:43 | 51.97425 | -39.82904 | 36029 ft | 477 kts | 278° |
| 2026-05-06 02:43 | 51.98972 | -39.93364 | 36033 ft | 476 kts | 275° |
| 2026-05-06 02:44 | 51.99311 | -40.03833 | 36038 ft | 466 kts | 263° |
| 2026-05-06 02:44 | 51.99000 | -40.14312 | 36023 ft | 464 kts | 261° |
| 2026-05-06 02:45 | 51.98522 | -40.24646 | 36025 ft | 462 kts | 260° |
| 2026-05-06 02:45 | 51.97960 | -40.35022 | 36030 ft | 464 kts | 260° |
| 2026-05-06 02:46 | 51.97366 | -40.45332 | 36018 ft | 462 kts | 260° |
| 2026-05-06 02:46 | 51.96749 | -40.55691 | 36028 ft | 463 kts | 260° |
| 2026-05-06 02:47 | 51.96118 | -40.66047 | 36020 ft | 461 kts | 259° |
| 2026-05-06 02:47 | 51.95484 | -40.76284 | 36022 ft | 461 kts | 259° |
| 2026-05-06 02:48 | 51.94834 | -40.86628 | 36018 ft | 462 kts | 259° |
| 2026-05-06 02:48 | 51.94179 | -40.96903 | 36018 ft | 461 kts | 259° |
| 2026-05-06 02:49 | 51.93515 | -41.07157 | 36028 ft | 461 kts | 259° |
| 2026-05-06 02:49 | 51.92834 | -41.17542 | 36030 ft | 462 kts | 259° |
| 2026-05-06 02:50 | 51.92155 | -41.27772 | 36024 ft | 458 kts | 259° |
| 2026-05-06 02:50 | 51.91463 | -41.38016 | 36021 ft | 461 kts | 259° |
| 2026-05-06 02:51 | 51.90762 | -41.48301 | 36014 ft | 462 kts | 259° |
| 2026-05-06 02:51 | 51.90055 | -41.58528 | 36014 ft | 460 kts | 259° |
| 2026-05-06 02:52 | 51.89337 | -41.68774 | 36015 ft | 461 kts | 258° |
| 2026-05-06 02:52 | 51.88607 | -41.79064 | 36009 ft | 459 kts | 259° |
| 2026-05-06 02:53 | 51.87875 | -41.89262 | 36014 ft | 459 kts | 259° |
| 2026-05-06 02:53 | 51.87133 | -41.99462 | 36004 ft | 460 kts | 259° |
| 2026-05-06 02:54 | 51.86377 | -42.09739 | 36008 ft | 460 kts | 259° |
| 2026-05-06 02:54 | 51.85617 | -42.19933 | 36000 ft | 460 kts | 259° |
| 2026-05-06 02:55 | 51.84849 | -42.30135 | 35996 ft | 458 kts | 259° |
| 2026-05-06 02:55 | 51.84074 | -42.40296 | 35993 ft | 458 kts | 259° |
| 2026-05-06 02:56 | 51.83284 | -42.50516 | 35986 ft | 459 kts | 259° |
| 2026-05-06 02:56 | 51.82492 | -42.60680 | 35996 ft | 457 kts | 259° |
| 2026-05-06 02:57 | 51.81690 | -42.70835 | 35991 ft | 456 kts | 258° |
| 2026-05-06 02:57 | 51.80882 | -42.80958 | 35979 ft | 456 kts | 258° |
| 2026-05-06 02:58 | 51.80068 | -42.91045 | 35972 ft | 456 kts | 258° |
| 2026-05-06 02:58 | 51.79242 | -43.01158 | 35966 ft | 456 kts | 258° |
| 2026-05-06 02:59 | 51.78409 | -43.11263 | 35977 ft | 455 kts | 258° |
| 2026-05-06 02:59 | 51.77567 | -43.21360 | 35970 ft | 456 kts | 258° |
| 2026-05-06 03:00 | 51.76719 | -43.31426 | 35966 ft | 455 kts | 258° |
| 2026-05-06 03:00 | 51.75858 | -43.41544 | 35960 ft | 455 kts | 258° |
| 2026-05-06 03:01 | 51.74995 | -43.51567 | 35956 ft | 455 kts | 258° |
| 2026-05-06 03:01 | 51.74123 | -43.61595 | 35957 ft | 454 kts | 258° |
| 2026-05-06 03:02 | 51.73238 | -43.71677 | 35944 ft | 454 kts | 258° |
| 2026-05-06 03:02 | 51.72347 | -43.81721 | 35945 ft | 454 kts | 258° |
| 2026-05-06 03:03 | 51.71448 | -43.91760 | 35938 ft | 453 kts | 258° |
| 2026-05-06 03:03 | 51.70543 | -44.01757 | 35939 ft | 454 kts | 258° |
| 2026-05-06 03:04 | 51.69629 | -44.11760 | 35931 ft | 454 kts | 257° |
| 2026-05-06 03:04 | 51.68706 | -44.21764 | 35930 ft | 454 kts | 258° |
| 2026-05-06 03:05 | 51.67775 | -44.31771 | 35927 ft | 453 kts | 257° |
| 2026-05-06 03:05 | 51.66835 | -44.41764 | 35919 ft | 453 kts | 257° |
| 2026-05-06 03:06 | 51.65888 | -44.51749 | 35918 ft | 453 kts | 257° |
| 2026-05-06 03:06 | 51.64930 | -44.61746 | 35919 ft | 452 kts | 258° |
| 2026-05-06 03:07 | 51.63969 | -44.71680 | 35913 ft | 452 kts | 257° |
| 2026-05-06 03:07 | 51.62998 | -44.81634 | 35909 ft | 451 kts | 257° |
| 2026-05-06 03:08 | 51.62022 | -44.91545 | 35903 ft | 452 kts | 257° |
| 2026-05-06 03:08 | 51.61037 | -45.01461 | 35904 ft | 450 kts | 257° |
| 2026-05-06 03:09 | 51.60045 | -45.11363 | 35894 ft | 451 kts | 257° |
| 2026-05-06 03:09 | 51.59037 | -45.21336 | 35897 ft | 451 kts | 257° |
| 2026-05-06 03:10 | 51.58026 | -45.31241 | 35885 ft | 452 kts | 257° |
| 2026-05-06 03:10 | 51.57012 | -45.41099 | 35886 ft | 451 kts | 257° |
| 2026-05-06 03:11 | 51.55982 | -45.51024 | 35883 ft | 452 kts | 257° |
| 2026-05-06 03:11 | 51.54941 | -45.60966 | 35876 ft | 451 kts | 257° |
| 2026-05-06 03:12 | 51.53897 | -45.70857 | 35877 ft | 450 kts | 256° |
| 2026-05-06 03:12 | 51.52846 | -45.80726 | 35872 ft | 451 kts | 256° |
| 2026-05-06 03:13 | 51.51784 | -45.90625 | 35862 ft | 451 kts | 256° |
| 2026-05-06 03:13 | 51.50719 | -46.00465 | 35864 ft | 450 kts | 256° |
| 2026-05-06 03:14 | 51.49643 | -46.10325 | 35856 ft | 451 kts | 256° |
| 2026-05-06 03:14 | 51.48557 | -46.20203 | 35857 ft | 449 kts | 256° |
| 2026-05-06 03:15 | 51.47472 | -46.29986 | 35848 ft | 450 kts | 256° |
| 2026-05-06 03:15 | 51.46375 | -46.39800 | 35849 ft | 450 kts | 256° |
| 2026-05-06 03:16 | 51.45267 | -46.49631 | 35840 ft | 450 kts | 256° |
| 2026-05-06 03:16 | 51.44148 | -46.59483 | 35834 ft | 450 kts | 256° |
| 2026-05-06 03:17 | 51.43022 | -46.69319 | 35833 ft | 450 kts | 255° |
| 2026-05-06 03:17 | 51.41893 | -46.79108 | 35831 ft | 449 kts | 256° |
| 2026-05-06 03:18 | 51.40754 | -46.88909 | 35826 ft | 450 kts | 256° |
| 2026-05-06 03:18 | 51.39608 | -46.98697 | 35818 ft | 449 kts | 255° |
| 2026-05-06 03:19 | 51.38453 | -47.08473 | 35821 ft | 449 kts | 255° |
| 2026-05-06 03:19 | 51.37286 | -47.18287 | 35808 ft | 450 kts | 256° |
| 2026-05-06 03:20 | 51.35528 | -47.32940 | 35795 ft | 449 kts | 256° |
| 2026-05-06 03:20 | 51.34351 | -47.42655 | 35788 ft | 450 kts | 256° |
| 2026-05-06 03:21 | 51.33159 | -47.52423 | 35788 ft | 449 kts | 256° |
| 2026-05-06 03:21 | 51.31960 | -47.62171 | 35789 ft | 448 kts | 256° |
| 2026-05-06 03:22 | 51.30755 | -47.71901 | 35785 ft | 448 kts | 255° |
| 2026-05-06 03:22 | 51.29544 | -47.81614 | 35773 ft | 448 kts | 255° |
| 2026-05-06 03:23 | 51.28326 | -47.91309 | 35774 ft | 448 kts | 255° |
| 2026-05-06 03:23 | 51.27095 | -48.01042 | 35766 ft | 447 kts | 255° |
| 2026-05-06 03:24 | 51.25867 | -48.10679 | 35760 ft | 447 kts | 255° |
| 2026-05-06 03:24 | 51.24625 | -48.20357 | 35757 ft | 448 kts | 255° |
| 2026-05-06 03:25 | 51.23366 | -48.30102 | 35746 ft | 448 kts | 255° |
| 2026-05-06 03:25 | 51.22112 | -48.39740 | 35750 ft | 447 kts | 255° |
| 2026-05-06 03:26 | 51.20843 | -48.49429 | 35749 ft | 446 kts | 255° |
| 2026-05-06 03:26 | 51.19572 | -48.59065 | 35739 ft | 447 kts | 255° |
| 2026-05-06 03:27 | 51.18293 | -48.68703 | 35731 ft | 447 kts | 254° |
| 2026-05-06 03:27 | 51.17003 | -48.78380 | 35731 ft | 446 kts | 254° |
| 2026-05-06 03:28 | 51.15709 | -48.87996 | 35733 ft | 446 kts | 254° |
| 2026-05-06 03:28 | 51.14402 | -48.97618 | 35725 ft | 447 kts | 255° |
| 2026-05-06 03:29 | 51.13102 | -49.07206 | 35724 ft | 446 kts | 255° |
| 2026-05-06 03:29 | 51.11783 | -49.16793 | 35716 ft | 446 kts | 255° |
| 2026-05-06 03:30 | 51.10448 | -49.26441 | 35714 ft | 446 kts | 255° |
| 2026-05-06 03:30 | 51.09120 | -49.36012 | 35707 ft | 446 kts | 255° |
| 2026-05-06 03:31 | 51.07782 | -49.45597 | 35704 ft | 445 kts | 255° |
| 2026-05-06 03:31 | 51.06433 | -49.55165 | 35693 ft | 446 kts | 255° |
| 2026-05-06 03:32 | 51.05067 | -49.64743 | 35682 ft | 446 kts | 255° |
| 2026-05-06 03:32 | 51.03703 | -49.74304 | 35687 ft | 445 kts | 254° |
| 2026-05-06 03:33 | 51.02326 | -49.83881 | 35681 ft | 445 kts | 254° |
| 2026-05-06 03:33 | 51.00953 | -49.93416 | 35682 ft | 445 kts | 254° |
| 2026-05-06 03:34 | 50.99175 | -50.02721 | 35685 ft | 441 kts | 248° |
| 2026-05-06 03:34 | 50.97088 | -50.11808 | 35676 ft | 442 kts | 247° |
| 2026-05-06 03:35 | 50.94927 | -50.20960 | 35665 ft | 443 kts | 247° |
| 2026-05-06 03:35 | 50.92756 | -50.30001 | 35659 ft | 443 kts | 246° |
| 2026-05-06 03:36 | 50.90556 | -50.39111 | 35659 ft | 442 kts | 247° |
| 2026-05-06 03:36 | 50.88356 | -50.48161 | 35662 ft | 444 kts | 247° |
| 2026-05-06 03:37 | 50.86153 | -50.57179 | 35666 ft | 442 kts | 247° |
| 2026-05-06 03:37 | 50.83927 | -50.66266 | 35655 ft | 443 kts | 246° |
| 2026-05-06 03:38 | 50.81689 | -50.75312 | 35656 ft | 443 kts | 246° |
| 2026-05-06 03:38 | 50.79461 | -50.84329 | 35648 ft | 443 kts | 246° |
| 2026-05-06 03:39 | 50.77213 | -50.93366 | 35647 ft | 443 kts | 246° |
| 2026-05-06 03:39 | 50.74974 | -51.02334 | 35641 ft | 443 kts | 246° |
| 2026-05-06 03:40 | 50.72707 | -51.11352 | 35638 ft | 443 kts | 246° |
| 2026-05-06 03:40 | 50.70441 | -51.20346 | 35638 ft | 443 kts | 246° |
| 2026-05-06 03:41 | 50.68173 | -51.29327 | 35636 ft | 442 kts | 246° |
| 2026-05-06 03:41 | 50.65906 | -51.38255 | 35635 ft | 441 kts | 246° |
| 2026-05-06 03:42 | 50.63627 | -51.47208 | 35632 ft | 443 kts | 246° |
| 2026-05-06 03:42 | 50.61333 | -51.56166 | 35618 ft | 441 kts | 246° |
| 2026-05-06 03:43 | 50.59043 | -51.65080 | 35623 ft | 441 kts | 246° |
| 2026-05-06 03:43 | 50.56744 | -51.74002 | 35619 ft | 441 kts | 246° |
| 2026-05-06 03:44 | 50.54455 | -51.82843 | 35613 ft | 441 kts | 246° |
| 2026-05-06 03:44 | 50.52148 | -51.91733 | 35616 ft | 441 kts | 246° |
| 2026-05-06 03:45 | 50.49844 | -52.00670 | 35603 ft | 442 kts | 249° |
| 2026-05-06 03:45 | 50.47977 | -52.09821 | 35604 ft | 442 kts | 251° |
| 2026-05-06 03:46 | 50.46120 | -52.18929 | 35597 ft | 442 kts | 250° |
| 2026-05-06 03:46 | 50.44241 | -52.28080 | 35598 ft | 441 kts | 251° |
| 2026-05-06 03:47 | 50.42355 | -52.37188 | 35596 ft | 442 kts | 251° |
| 2026-05-06 03:47 | 50.40464 | -52.46298 | 35587 ft | 442 kts | 251° |
| 2026-05-06 03:48 | 50.38557 | -52.55424 | 35583 ft | 440 kts | 251° |
| 2026-05-06 03:48 | 50.36666 | -52.64474 | 35572 ft | 442 kts | 251° |
| 2026-05-06 03:49 | 50.34744 | -52.73609 | 35580 ft | 441 kts | 250° |
| 2026-05-06 03:49 | 50.32827 | -52.82648 | 35573 ft | 441 kts | 250° |
| 2026-05-06 03:50 | 50.30900 | -52.91710 | 35577 ft | 440 kts | 250° |
| 2026-05-06 03:50 | 50.28968 | -53.00741 | 35573 ft | 440 kts | 250° |
| 2026-05-06 03:51 | 50.27026 | -53.09815 | 35566 ft | 441 kts | 250° |
| 2026-05-06 03:51 | 50.25080 | -53.18851 | 35570 ft | 440 kts | 250° |
| 2026-05-06 03:52 | 50.23126 | -53.27886 | 35562 ft | 440 kts | 250° |
| 2026-05-06 03:52 | 50.21170 | -53.36891 | 35562 ft | 441 kts | 250° |
| 2026-05-06 03:53 | 50.19205 | -53.45894 | 35565 ft | 440 kts | 250° |
| 2026-05-06 03:53 | 50.17234 | -53.54887 | 35567 ft | 440 kts | 250° |
| 2026-05-06 03:54 | 50.15247 | -53.63915 | 35566 ft | 441 kts | 250° |
| 2026-05-06 03:54 | 50.13264 | -53.72884 | 35567 ft | 441 kts | 250° |
| 2026-05-06 03:55 | 50.11270 | -53.81863 | 35565 ft | 440 kts | 250° |
| 2026-05-06 03:55 | 50.09273 | -53.90823 | 35571 ft | 441 kts | 250° |
| 2026-05-06 03:56 | 50.07262 | -53.99799 | 35561 ft | 441 kts | 250° |
| 2026-05-06 03:56 | 50.05246 | -54.08762 | 35567 ft | 440 kts | 250° |
| 2026-05-06 03:57 | 50.03225 | -54.17712 | 35561 ft | 440 kts | 250° |
| 2026-05-06 03:57 | 50.01201 | -54.26636 | 35559 ft | 439 kts | 250° |
| 2026-05-06 03:58 | 49.99166 | -54.35567 | 35544 ft | 440 kts | 250° |
| 2026-05-06 03:58 | 49.97139 | -54.44430 | 35550 ft | 439 kts | 250° |
| 2026-05-06 03:59 | 49.95090 | -54.53350 | 35537 ft | 439 kts | 250° |
| 2026-05-06 03:59 | 49.93047 | -54.62208 | 35547 ft | 438 kts | 250° |
| 2026-05-06 04:00 | 49.90993 | -54.71076 | 35541 ft | 438 kts | 249° |
| 2026-05-06 04:00 | 49.88936 | -54.79923 | 35539 ft | 439 kts | 249° |
| 2026-05-06 04:01 | 49.86872 | -54.88759 | 35531 ft | 438 kts | 249° |
| 2026-05-06 04:01 | 49.84790 | -54.97641 | 35521 ft | 438 kts | 249° |
| 2026-05-06 04:02 | 49.82715 | -55.06449 | 35530 ft | 437 kts | 250° |
| 2026-05-06 04:02 | 49.80632 | -55.15262 | 35529 ft | 438 kts | 249° |
| 2026-05-06 04:03 | 49.78539 | -55.24080 | 35523 ft | 439 kts | 249° |
| 2026-05-06 04:03 | 49.76438 | -55.32894 | 35533 ft | 438 kts | 249° |
| 2026-05-06 04:04 | 49.74335 | -55.41681 | 35533 ft | 438 kts | 250° |
| 2026-05-06 04:04 | 49.72226 | -55.50458 | 35536 ft | 439 kts | 250° |
| 2026-05-06 04:05 | 49.70096 | -55.59285 | 35524 ft | 440 kts | 250° |
| 2026-05-06 04:05 | 49.67951 | -55.68142 | 35534 ft | 440 kts | 249° |
| 2026-05-06 04:06 | 49.65807 | -55.76960 | 35538 ft | 440 kts | 249° |
| 2026-05-06 04:06 | 49.63661 | -55.85748 | 35532 ft | 441 kts | 249° |
| 2026-05-06 04:07 | 49.61514 | -55.94505 | 35540 ft | 441 kts | 249° |
| 2026-05-06 04:07 | 49.59339 | -56.03342 | 35537 ft | 441 kts | 249° |
| 2026-05-06 04:08 | 49.57175 | -56.12099 | 35543 ft | 440 kts | 249° |
| 2026-05-06 04:08 | 49.54988 | -56.20918 | 35530 ft | 441 kts | 249° |
| 2026-05-06 04:09 | 49.52805 | -56.29683 | 35526 ft | 440 kts | 249° |
| 2026-05-06 04:09 | 49.50613 | -56.38449 | 35531 ft | 440 kts | 249° |
| 2026-05-06 04:10 | 49.48427 | -56.47158 | 35535 ft | 440 kts | 249° |
| 2026-05-06 04:10 | 49.46220 | -56.55915 | 35539 ft | 439 kts | 249° |
| 2026-05-06 04:11 | 49.44021 | -56.64610 | 35529 ft | 440 kts | 249° |
| 2026-05-06 04:11 | 49.41807 | -56.73327 | 35529 ft | 440 kts | 249° |
| 2026-05-06 04:12 | 49.39581 | -56.82059 | 35541 ft | 439 kts | 249° |
| 2026-05-06 04:12 | 49.37355 | -56.90755 | 35544 ft | 439 kts | 249° |
| 2026-05-06 04:13 | 49.35120 | -56.99458 | 35556 ft | 440 kts | 249° |
| 2026-05-06 04:13 | 49.32892 | -57.08096 | 35567 ft | 439 kts | 249° |
| 2026-05-06 04:14 | 49.30646 | -57.16776 | 35558 ft | 439 kts | 249° |
| 2026-05-06 04:14 | 49.28392 | -57.25452 | 35575 ft | 439 kts | 249° |
| 2026-05-06 04:15 | 49.26138 | -57.34092 | 35567 ft | 439 kts | 249° |
| 2026-05-06 04:15 | 49.23872 | -57.42749 | 35578 ft | 438 kts | 249° |
| 2026-05-06 04:16 | 49.21613 | -57.51344 | 35580 ft | 439 kts | 249° |
| 2026-05-06 04:16 | 49.19336 | -57.59977 | 35582 ft | 439 kts | 249° |
| 2026-05-06 04:17 | 49.17061 | -57.68568 | 35586 ft | 438 kts | 248° |
| 2026-05-06 04:17 | 49.14779 | -57.77155 | 35580 ft | 440 kts | 248° |
| 2026-05-06 04:18 | 49.12479 | -57.85775 | 35581 ft | 438 kts | 248° |
| 2026-05-06 04:18 | 49.10184 | -57.94347 | 35582 ft | 439 kts | 248° |
| 2026-05-06 04:19 | 49.07885 | -58.02905 | 35586 ft | 439 kts | 248° |
| 2026-05-06 04:19 | 49.05568 | -58.11495 | 35588 ft | 439 kts | 248° |
| 2026-05-06 04:20 | 49.03252 | -58.20050 | 35591 ft | 439 kts | 248° |
| 2026-05-06 04:20 | 49.00936 | -58.28575 | 35593 ft | 439 kts | 248° |
| 2026-05-06 04:21 | 48.98594 | -58.37162 | 35600 ft | 438 kts | 248° |
| 2026-05-06 04:21 | 48.96260 | -58.45692 | 35613 ft | 439 kts | 248° |
| 2026-05-06 04:22 | 48.93919 | -58.54215 | 35626 ft | 439 kts | 249° |
| 2026-05-06 04:23 | 48.90379 | -58.67044 | 35638 ft | 440 kts | 248° |
| 2026-05-06 04:23 | 48.88017 | -58.75565 | 35652 ft | 440 kts | 248° |
| 2026-05-06 04:24 | 48.85645 | -58.84090 | 35654 ft | 439 kts | 248° |
| 2026-05-06 04:24 | 48.83283 | -58.92554 | 35660 ft | 440 kts | 248° |
| 2026-05-06 04:25 | 48.80896 | -59.01075 | 35664 ft | 440 kts | 248° |
| 2026-05-06 04:25 | 48.78499 | -59.09597 | 35664 ft | 440 kts | 248° |
| 2026-05-06 04:26 | 48.76106 | -59.18077 | 35666 ft | 440 kts | 248° |
| 2026-05-06 04:26 | 48.73714 | -59.26526 | 35671 ft | 439 kts | 248° |
| 2026-05-06 04:27 | 48.71296 | -59.35032 | 35665 ft | 440 kts | 248° |
| 2026-05-06 04:27 | 48.68898 | -59.43443 | 35666 ft | 440 kts | 248° |
| 2026-05-06 04:28 | 48.66466 | -59.51940 | 35674 ft | 439 kts | 248° |
| 2026-05-06 04:28 | 48.64038 | -59.60393 | 35677 ft | 439 kts | 248° |
| 2026-05-06 04:29 | 48.61612 | -59.68809 | 35685 ft | 440 kts | 248° |
| 2026-05-06 04:29 | 48.59168 | -59.77260 | 35681 ft | 440 kts | 248° |
| 2026-05-06 04:30 | 48.56729 | -59.85663 | 35691 ft | 439 kts | 248° |
| 2026-05-06 04:30 | 48.54282 | -59.94066 | 35684 ft | 440 kts | 248° |
| 2026-05-06 04:31 | 48.51820 | -60.02490 | 35682 ft | 440 kts | 248° |
| 2026-05-06 04:31 | 48.49362 | -60.10871 | 35681 ft | 439 kts | 248° |
| 2026-05-06 04:32 | 48.46892 | -60.19265 | 35698 ft | 439 kts | 248° |
| 2026-05-06 04:32 | 48.44429 | -60.27606 | 35695 ft | 439 kts | 248° |
| 2026-05-06 04:33 | 48.41954 | -60.35959 | 35698 ft | 439 kts | 248° |
| 2026-05-06 04:33 | 48.39463 | -60.44336 | 35702 ft | 439 kts | 248° |
| 2026-05-06 04:34 | 48.36981 | -60.52657 | 35699 ft | 438 kts | 248° |
| 2026-05-06 04:34 | 48.34482 | -60.61005 | 35710 ft | 439 kts | 248° |
| 2026-05-06 04:35 | 48.31988 | -60.69309 | 35709 ft | 438 kts | 248° |
| 2026-05-06 04:35 | 48.29475 | -60.77647 | 35712 ft | 439 kts | 248° |
| 2026-05-06 04:36 | 48.26971 | -60.85931 | 35723 ft | 437 kts | 248° |
| 2026-05-06 04:36 | 48.24464 | -60.94190 | 35719 ft | 438 kts | 248° |
| 2026-05-06 04:37 | 48.21938 | -61.02488 | 35722 ft | 438 kts | 248° |
| 2026-05-06 04:37 | 48.19412 | -61.10758 | 35724 ft | 437 kts | 248° |
| 2026-05-06 04:38 | 48.16895 | -61.18972 | 35734 ft | 437 kts | 248° |
| 2026-05-06 04:38 | 48.14358 | -61.27250 | 35732 ft | 436 kts | 248° |
| 2026-05-06 04:39 | 48.11851 | -61.35444 | 35727 ft | 437 kts | 248° |
| 2026-05-06 04:39 | 48.09312 | -61.43715 | 35731 ft | 437 kts | 248° |
| 2026-05-06 04:40 | 48.06794 | -61.51892 | 35737 ft | 437 kts | 248° |
| 2026-05-06 04:40 | 48.04247 | -61.60135 | 35737 ft | 436 kts | 248° |
| 2026-05-06 04:41 | 48.01715 | -61.68302 | 35749 ft | 436 kts | 248° |
| 2026-05-06 04:41 | 47.99166 | -61.76498 | 35744 ft | 437 kts | 248° |
| 2026-05-06 04:42 | 47.96626 | -61.84638 | 35759 ft | 436 kts | 248° |
| 2026-05-06 04:42 | 47.94054 | -61.92855 | 35749 ft | 436 kts | 248° |
| 2026-05-06 04:43 | 47.91504 | -62.00972 | 35754 ft | 435 kts | 248° |
| 2026-05-06 04:43 | 47.88943 | -62.09105 | 35750 ft | 436 kts | 248° |
| 2026-05-06 04:44 | 47.86377 | -62.17220 | 35754 ft | 435 kts | 248° |
| 2026-05-06 04:44 | 47.83799 | -62.25354 | 35749 ft | 437 kts | 248° |
| 2026-05-06 04:45 | 47.81199 | -62.33521 | 35757 ft | 435 kts | 248° |
| 2026-05-06 04:45 | 47.78608 | -62.41640 | 35769 ft | 436 kts | 248° |
| 2026-05-06 04:46 | 47.76011 | -62.49752 | 35752 ft | 436 kts | 248° |
| 2026-05-06 04:46 | 47.73414 | -62.57836 | 35751 ft | 435 kts | 248° |
| 2026-05-06 04:47 | 47.70803 | -62.65939 | 35755 ft | 437 kts | 248° |
| 2026-05-06 04:47 | 47.68196 | -62.74000 | 35763 ft | 436 kts | 248° |
| 2026-05-06 04:48 | 47.65574 | -62.82086 | 35773 ft | 436 kts | 248° |
| 2026-05-06 04:48 | 47.62947 | -62.90162 | 35769 ft | 436 kts | 248° |
| 2026-05-06 04:49 | 47.60321 | -62.98209 | 35767 ft | 436 kts | 248° |
| 2026-05-06 04:49 | 47.57683 | -63.06266 | 35783 ft | 437 kts | 248° |
| 2026-05-06 04:50 | 47.55026 | -63.14356 | 35765 ft | 436 kts | 248° |
| 2026-05-06 04:50 | 47.52381 | -63.22386 | 35780 ft | 435 kts | 248° |
| 2026-05-06 04:51 | 47.49733 | -63.30400 | 35770 ft | 437 kts | 248° |
| 2026-05-06 04:51 | 47.47077 | -63.38411 | 35785 ft | 436 kts | 248° |
| 2026-05-06 04:52 | 47.44407 | -63.46441 | 35769 ft | 436 kts | 248° |
| 2026-05-06 04:52 | 47.41743 | -63.54425 | 35774 ft | 437 kts | 248° |
| 2026-05-06 04:53 | 47.39071 | -63.62411 | 35785 ft | 436 kts | 248° |
| 2026-05-06 04:53 | 47.36394 | -63.70386 | 35787 ft | 435 kts | 248° |
| 2026-05-06 04:54 | 47.33715 | -63.78342 | 35787 ft | 436 kts | 248° |
| 2026-05-06 04:54 | 47.31022 | -63.86318 | 35783 ft | 435 kts | 248° |
| 2026-05-06 04:55 | 47.28326 | -63.94276 | 35798 ft | 436 kts | 248° |
| 2026-05-06 04:55 | 47.25631 | -64.02206 | 35799 ft | 435 kts | 248° |
| 2026-05-06 04:56 | 47.22925 | -64.10145 | 35788 ft | 435 kts | 248° |
| 2026-05-06 04:56 | 47.20217 | -64.18070 | 35798 ft | 435 kts | 248° |
| 2026-05-06 04:57 | 47.17516 | -64.25948 | 35808 ft | 434 kts | 248° |
| 2026-05-06 04:57 | 47.14801 | -64.33836 | 35800 ft | 433 kts | 248° |
| 2026-05-06 04:58 | 47.12091 | -64.41694 | 35796 ft | 433 kts | 249° |
| 2026-05-06 04:58 | 47.09368 | -64.49568 | 35808 ft | 435 kts | 248° |
| 2026-05-06 04:59 | 47.06636 | -64.57435 | 35788 ft | 431 kts | 249° |
| 2026-05-06 04:59 | 47.03933 | -64.65205 | 35816 ft | 432 kts | 248° |
| 2026-05-06 05:00 | 47.01183 | -64.73081 | 35808 ft | 433 kts | 248° |
| 2026-05-06 05:00 | 46.98457 | -64.80862 | 35824 ft | 431 kts | 248° |
| 2026-05-06 05:01 | 46.95730 | -64.88627 | 35816 ft | 430 kts | 248° |
| 2026-05-06 05:01 | 46.92980 | -64.96439 | 35820 ft | 431 kts | 248° |
| 2026-05-06 05:02 | 46.90244 | -65.04182 | 35825 ft | 430 kts | 248° |
| 2026-05-06 05:02 | 46.87511 | -65.11895 | 35798 ft | 429 kts | 248° |
| 2026-05-06 05:03 | 46.84763 | -65.19630 | 35804 ft | 429 kts | 248° |
| 2026-05-06 05:03 | 46.82012 | -65.27348 | 35815 ft | 431 kts | 248° |
| 2026-05-06 05:04 | 46.79253 | -65.35066 | 35806 ft | 429 kts | 248° |
| 2026-05-06 05:04 | 46.76499 | -65.42749 | 35803 ft | 428 kts | 249° |
| 2026-05-06 05:05 | 46.73742 | -65.50421 | 35832 ft | 430 kts | 248° |
| 2026-05-06 05:05 | 46.70966 | -65.58120 | 35598 ft | 428 kts | 249° |
| 2026-05-06 05:05 | 46.69591 | -65.61922 | 35739 ft | 425 kts | 249° |
| 2026-05-06 05:06 | 46.68225 | -65.65707 | 35792 ft | 433 kts | 248° |
| 2026-05-06 05:06 | 46.65408 | -65.73473 | 35833 ft | 433 kts | 247° |
| 2026-05-06 05:07 | 46.62613 | -65.81155 | 35803 ft | 430 kts | 248° |
| 2026-05-06 05:07 | 46.59813 | -65.88835 | 35835 ft | 433 kts | 248° |
| 2026-05-06 05:08 | 46.57012 | -65.96490 | 35828 ft | 430 kts | 248° |
| 2026-05-06 05:08 | 46.54216 | -66.04115 | 35818 ft | 430 kts | 248° |
| 2026-05-06 05:09 | 46.51414 | -66.11733 | 35836 ft | 429 kts | 248° |
| 2026-05-06 05:09 | 46.48592 | -66.19379 | 35803 ft | 428 kts | 248° |
| 2026-05-06 05:10 | 46.45807 | -66.26910 | 35816 ft | 429 kts | 248° |
| 2026-05-06 05:10 | 46.42981 | -66.34530 | 35821 ft | 429 kts | 248° |
| 2026-05-06 05:11 | 46.40157 | -66.42118 | 35827 ft | 426 kts | 248° |
| 2026-05-06 05:11 | 46.37345 | -66.49660 | 35816 ft | 428 kts | 248° |
| 2026-05-06 05:12 | 46.34530 | -66.57181 | 35811 ft | 427 kts | 248° |
| 2026-05-06 05:12 | 46.31717 | -66.64683 | 35799 ft | 427 kts | 248° |
| 2026-05-06 05:13 | 46.28889 | -66.72199 | 35816 ft | 428 kts | 247° |
| 2026-05-06 05:13 | 46.26051 | -66.79724 | 35811 ft | 426 kts | 247° |
| 2026-05-06 05:14 | 46.23216 | -66.87216 | 35806 ft | 426 kts | 247° |
| 2026-05-06 05:14 | 46.20381 | -66.94690 | 35805 ft | 425 kts | 247° |
| 2026-05-06 05:15 | 46.17529 | -67.02190 | 35809 ft | 427 kts | 247° |
| 2026-05-06 05:15 | 46.14696 | -67.09618 | 35800 ft | 426 kts | 247° |
| 2026-05-06 05:16 | 46.11844 | -67.17075 | 35807 ft | 425 kts | 247° |
| 2026-05-06 05:16 | 46.08986 | -67.24528 | 35810 ft | 426 kts | 248° |
| 2026-05-06 05:17 | 46.06128 | -67.31962 | 35807 ft | 426 kts | 247° |
| 2026-05-06 05:17 | 46.03272 | -67.39368 | 35810 ft | 425 kts | 247° |
| 2026-05-06 05:18 | 46.00397 | -67.46803 | 35814 ft | 427 kts | 247° |
| 2026-05-06 05:18 | 45.97519 | -67.54225 | 35812 ft | 425 kts | 247° |
| 2026-05-06 05:19 | 45.94648 | -67.61611 | 35811 ft | 426 kts | 247° |
| 2026-05-06 05:19 | 45.91754 | -67.69037 | 35811 ft | 427 kts | 246° |
| 2026-05-06 05:20 | 45.88875 | -67.76403 | 35807 ft | 427 kts | 246° |
| 2026-05-06 05:20 | 45.85969 | -67.83819 | 35806 ft | 427 kts | 246° |
| 2026-05-06 05:21 | 45.83061 | -67.91219 | 35808 ft | 429 kts | 247° |
| 2026-05-06 05:21 | 45.80123 | -67.98676 | 35809 ft | 428 kts | 246° |
| 2026-05-06 05:22 | 45.77199 | -68.06077 | 35808 ft | 428 kts | 246° |
| 2026-05-06 05:22 | 45.74264 | -68.13488 | 35806 ft | 430 kts | 246° |
| 2026-05-06 05:23 | 45.71330 | -68.20873 | 35803 ft | 428 kts | 246° |
| 2026-05-06 05:23 | 45.66928 | -68.31918 | 35804 ft | 429 kts | 246° |
| 2026-05-06 05:24 | 45.63972 | -68.39311 | 35805 ft | 428 kts | 246° |
| 2026-05-06 05:24 | 45.61024 | -68.46664 | 35807 ft | 429 kts | 246° |
| 2026-05-06 05:25 | 45.58070 | -68.54013 | 35804 ft | 428 kts | 246° |
| 2026-05-06 05:25 | 45.55104 | -68.61372 | 35803 ft | 428 kts | 246° |
| 2026-05-06 05:26 | 45.52136 | -68.68718 | 35814 ft | 429 kts | 246° |
| 2026-05-06 05:26 | 45.49173 | -68.76031 | 35810 ft | 428 kts | 245° |
| 2026-05-06 05:27 | 45.46205 | -68.83336 | 35810 ft | 428 kts | 245° |
| 2026-05-06 05:27 | 45.43226 | -68.90649 | 35803 ft | 428 kts | 245° |
| 2026-05-06 05:28 | 45.40246 | -68.97946 | 35804 ft | 428 kts | 245° |
| 2026-05-06 05:28 | 45.37248 | -69.05270 | 35801 ft | 428 kts | 245° |
| 2026-05-06 05:29 | 45.34264 | -69.12537 | 35797 ft | 428 kts | 245° |
| 2026-05-06 05:29 | 45.31270 | -69.19813 | 35795 ft | 428 kts | 245° |
| 2026-05-06 05:30 | 45.28271 | -69.27080 | 35797 ft | 429 kts | 245° |
| 2026-05-06 05:30 | 45.25269 | -69.34335 | 35800 ft | 427 kts | 245° |
| 2026-05-06 05:31 | 45.22272 | -69.41561 | 35786 ft | 427 kts | 245° |
| 2026-05-06 05:31 | 45.19262 | -69.48798 | 35791 ft | 427 kts | 245° |
| 2026-05-06 05:32 | 45.16237 | -69.56054 | 35789 ft | 427 kts | 245° |
| 2026-05-06 05:32 | 45.13242 | -69.63219 | 35790 ft | 426 kts | 245° |
| 2026-05-06 05:33 | 45.10225 | -69.70420 | 35811 ft | 427 kts | 244° |
| 2026-05-06 05:33 | 45.07200 | -69.77617 | 35808 ft | 426 kts | 244° |
| 2026-05-06 05:34 | 45.04195 | -69.84750 | 35803 ft | 425 kts | 244° |
| 2026-05-06 05:34 | 45.01167 | -69.91922 | 35805 ft | 426 kts | 244° |
| 2026-05-06 05:35 | 44.98143 | -69.99067 | 35808 ft | 426 kts | 244° |
| 2026-05-06 05:35 | 44.95139 | -70.06139 | 35802 ft | 425 kts | 245° |
| 2026-05-06 05:36 | 44.92119 | -70.13240 | 35803 ft | 425 kts | 244° |
| 2026-05-06 05:36 | 44.89068 | -70.20394 | 35803 ft | 425 kts | 244° |
| 2026-05-06 05:37 | 44.86029 | -70.27499 | 35805 ft | 426 kts | 244° |
| 2026-05-06 05:37 | 44.82976 | -70.34623 | 35801 ft | 426 kts | 244° |
| 2026-05-06 05:38 | 44.79911 | -70.41753 | 35807 ft | 427 kts | 244° |
| 2026-05-06 05:38 | 44.76854 | -70.48848 | 35804 ft | 427 kts | 244° |
| 2026-05-06 05:39 | 44.73772 | -70.55982 | 35812 ft | 425 kts | 244° |
| 2026-05-06 05:39 | 44.70701 | -70.63075 | 35821 ft | 428 kts | 244° |
| 2026-05-06 05:40 | 44.67617 | -70.70178 | 35833 ft | 427 kts | 244° |
| 2026-05-06 05:40 | 44.64532 | -70.77268 | 35837 ft | 427 kts | 243° |
| 2026-05-06 05:41 | 44.61446 | -70.84341 | 35824 ft | 428 kts | 244° |
| 2026-05-06 05:41 | 44.58344 | -70.91435 | 35823 ft | 427 kts | 244° |
| 2026-05-06 05:42 | 44.55224 | -70.98553 | 35816 ft | 430 kts | 243° |
| 2026-05-06 05:42 | 44.52128 | -71.05595 | 35792 ft | 427 kts | 243° |
| 2026-05-06 05:43 | 44.49005 | -71.12682 | 35802 ft | 428 kts | 243° |
| 2026-05-06 05:43 | 44.45886 | -71.19741 | 35796 ft | 428 kts | 243° |
| 2026-05-06 05:44 | 44.42756 | -71.26811 | 35803 ft | 428 kts | 244° |
| 2026-05-06 05:44 | 44.39633 | -71.33847 | 35798 ft | 428 kts | 244° |
| 2026-05-06 05:45 | 44.36489 | -71.40913 | 35789 ft | 429 kts | 243° |
| 2026-05-06 05:45 | 44.33348 | -71.47955 | 35787 ft | 428 kts | 243° |
| 2026-05-06 05:46 | 44.30193 | -71.55010 | 35782 ft | 430 kts | 244° |
| 2026-05-06 05:46 | 44.27038 | -71.62048 | 35776 ft | 429 kts | 244° |
| 2026-05-06 05:47 | 44.23900 | -71.69031 | 35800 ft | 429 kts | 243° |
| 2026-05-06 05:47 | 44.20565 | -71.76009 | 35804 ft | 433 kts | 239° |
| 2026-05-06 05:48 | 44.17065 | -71.82756 | 35805 ft | 432 kts | 239° |
| 2026-05-06 05:48 | 44.13534 | -71.89478 | 35800 ft | 433 kts | 239° |
| 2026-05-06 05:49 | 44.09959 | -71.96236 | 35813 ft | 433 kts | 239° |
| 2026-05-06 05:49 | 44.06383 | -72.02966 | 35802 ft | 433 kts | 239° |
| 2026-05-06 05:50 | 44.02811 | -72.09673 | 35812 ft | 434 kts | 239° |
| 2026-05-06 05:50 | 43.99228 | -72.16379 | 35803 ft | 434 kts | 239° |
| 2026-05-06 05:51 | 43.95628 | -72.23103 | 35802 ft | 435 kts | 239° |
| 2026-05-06 05:51 | 43.92041 | -72.29784 | 35802 ft | 434 kts | 239° |
| 2026-05-06 05:52 | 43.88432 | -72.36494 | 35799 ft | 436 kts | 239° |
| 2026-05-06 05:52 | 43.84821 | -72.43188 | 35791 ft | 433 kts | 239° |
| 2026-05-06 05:53 | 43.81219 | -72.49854 | 35789 ft | 435 kts | 239° |
| 2026-05-06 05:53 | 43.77593 | -72.56548 | 35788 ft | 435 kts | 239° |
| 2026-05-06 05:54 | 43.73971 | -72.63220 | 35787 ft | 435 kts | 238° |
| 2026-05-06 05:54 | 43.70340 | -72.69893 | 35795 ft | 437 kts | 238° |
| 2026-05-06 05:55 | 43.66690 | -72.76583 | 35792 ft | 437 kts | 238° |
| 2026-05-06 05:55 | 43.63032 | -72.83275 | 35792 ft | 436 kts | 238° |
| 2026-05-06 05:56 | 43.59394 | -72.89913 | 35794 ft | 438 kts | 238° |
| 2026-05-06 05:56 | 43.55724 | -72.96597 | 35794 ft | 438 kts | 238° |
| 2026-05-06 05:57 | 43.52047 | -73.03277 | 35692 ft | 441 kts | 238° |
| 2026-05-06 05:57 | 43.50170 | -73.06686 | 34963 ft | 451 kts | 238° |
| 2026-05-06 05:57 | 43.48281 | -73.10104 | 34224 ft | 448 kts | 237° |
| 2026-05-06 05:58 | 43.46408 | -73.13492 | 33506 ft | 443 kts | 237° |
| 2026-05-06 05:58 | 43.44555 | -73.16842 | 32845 ft | 442 kts | 237° |
| 2026-05-06 05:58 | 43.42712 | -73.20170 | 32119 ft | 446 kts | 237° |
| 2026-05-06 05:58 | 43.40840 | -73.23549 | 31333 ft | 448 kts | 237° |
| 2026-05-06 05:59 | 43.38963 | -73.26926 | 30532 ft | 446 kts | 236° |
| 2026-05-06 05:59 | 43.37078 | -73.30316 | 29724 ft | 444 kts | 236° |
| 2026-05-06 05:59 | 43.35214 | -73.33666 | 28866 ft | 440 kts | 236° |
| 2026-05-06 05:59 | 43.33382 | -73.36951 | 28054 ft | 432 kts | 236° |
| 2026-05-06 06:00 | 43.31578 | -73.40185 | 27251 ft | 426 kts | 236° |
| 2026-05-06 06:00 | 43.29787 | -73.43394 | 26483 ft | 420 kts | 236° |
| 2026-05-06 06:00 | 43.28026 | -73.46546 | 25772 ft | 417 kts | 236° |
| 2026-05-06 06:00 | 43.26288 | -73.49654 | 25085 ft | 414 kts | 235° |
| 2026-05-06 06:01 | 43.24551 | -73.52755 | 24326 ft | 407 kts | 235° |
| 2026-05-06 06:01 | 43.22853 | -73.55778 | 23894 ft | 403 kts | 234° |
| 2026-05-06 06:01 | 43.20940 | -73.58596 | 23365 ft | 407 kts | 224° |
| 2026-05-06 06:01 | 43.18658 | -73.60886 | 22859 ft | 405 kts | 214° |
| 2026-05-06 06:02 | 43.16093 | -73.62549 | 22453 ft | 408 kts | 205° |
| 2026-05-06 06:02 | 43.13425 | -73.63783 | 22003 ft | 407 kts | 203° |
| 2026-05-06 06:02 | 43.10778 | -73.64990 | 21550 ft | 401 kts | 202° |
| 2026-05-06 06:02 | 43.08143 | -73.66149 | 21123 ft | 398 kts | 202° |
| 2026-05-06 06:03 | 43.05512 | -73.67292 | 20668 ft | 396 kts | 201° |
| 2026-05-06 06:03 | 43.02896 | -73.68417 | 20212 ft | 394 kts | 201° |
| 2026-05-06 06:03 | 43.00306 | -73.69521 | 19747 ft | 389 kts | 201° |
| 2026-05-06 06:03 | 42.97737 | -73.70615 | 19258 ft | 386 kts | 201° |
| 2026-05-06 06:04 | 42.95172 | -73.71701 | 18774 ft | 383 kts | 201° |
| 2026-05-06 06:04 | 42.92647 | -73.72769 | 18304 ft | 379 kts | 201° |
| 2026-05-06 06:04 | 42.90163 | -73.73817 | 17839 ft | 376 kts | 201° |
| 2026-05-06 06:04 | 42.87683 | -73.74863 | 17392 ft | 373 kts | 201° |
| 2026-05-06 06:05 | 42.85216 | -73.75903 | 16893 ft | 371 kts | 201° |
| 2026-05-06 06:05 | 42.82727 | -73.76951 | 16491 ft | 370 kts | 201° |
| 2026-05-06 06:05 | 42.80298 | -73.77972 | 15953 ft | 368 kts | 201° |
| 2026-05-06 06:05 | 42.77878 | -73.78987 | 15905 ft | 361 kts | 201° |
| 2026-05-06 06:06 | 42.75485 | -73.79993 | 15913 ft | 365 kts | 201° |
| 2026-05-06 06:06 | 42.73065 | -73.81054 | 15912 ft | 367 kts | 202° |
| 2026-05-06 06:06 | 42.70634 | -73.82150 | 15912 ft | 367 kts | 202° |
| 2026-05-06 06:06 | 42.68208 | -73.83240 | 15910 ft | 367 kts | 202° |
| 2026-05-06 06:07 | 42.65766 | -73.84335 | 15923 ft | 365 kts | 202° |
| 2026-05-06 06:07 | 42.63380 | -73.85407 | 15949 ft | 366 kts | 202° |
| 2026-05-06 06:07 | 42.60931 | -73.86505 | 15884 ft | 367 kts | 202° |
| 2026-05-06 06:07 | 42.58536 | -73.87579 | 15925 ft | 365 kts | 202° |
| 2026-05-06 06:08 | 42.56165 | -73.88635 | 15921 ft | 352 kts | 202° |
| 2026-05-06 06:08 | 42.53866 | -73.89661 | 15900 ft | 337 kts | 202° |
| 2026-05-06 06:08 | 42.51696 | -73.90628 | 15909 ft | 323 kts | 202° |
| 2026-05-06 06:08 | 42.49624 | -73.91552 | 15901 ft | 309 kts | 202° |
| 2026-05-06 06:09 | 42.47613 | -73.92449 | 15899 ft | 297 kts | 202° |
| 2026-05-06 06:09 | 42.47375 | -73.92556 | 15898 ft | 297 kts | 203° |
| 2026-05-06 06:22 | 42.45639 | -73.93330 | 15907 ft | 294 kts | 202° |
| 2026-05-06 06:23 | 42.43726 | -73.94186 | 15908 ft | 293 kts | 203° |
| 2026-05-06 06:23 | 42.41766 | -73.95061 | 15910 ft | 294 kts | 202° |
| 2026-05-06 06:23 | 42.39825 | -73.95926 | 15909 ft | 295 kts | 202° |
| 2026-05-06 06:23 | 42.37858 | -73.96801 | 15914 ft | 295 kts | 202° |
| 2026-05-06 06:24 | 42.35910 | -73.97669 | 15915 ft | 295 kts | 202° |
| 2026-05-06 06:24 | 42.33942 | -73.98541 | 15911 ft | 295 kts | 202° |
| 2026-05-06 06:24 | 42.31993 | -73.99405 | 15916 ft | 296 kts | 202° |
| 2026-05-06 06:24 | 42.30040 | -74.00272 | 15919 ft | 296 kts | 202° |
| 2026-05-06 06:25 | 42.28086 | -74.01138 | 15922 ft | 296 kts | 202° |
| 2026-05-06 06:25 | 42.26153 | -74.01994 | 15916 ft | 295 kts | 202° |
| 2026-05-06 06:25 | 42.22230 | -74.03729 | 15912 ft | 296 kts | 202° |
| 2026-05-06 06:26 | 42.20274 | -74.04595 | 15887 ft | 297 kts | 202° |
| 2026-05-06 06:26 | 42.18330 | -74.05455 | 15862 ft | 297 kts | 202° |
| 2026-05-06 06:26 | 42.16368 | -74.06321 | 15832 ft | 295 kts | 202° |
| 2026-05-06 06:26 | 42.14430 | -74.07175 | 15808 ft | 294 kts | 202° |
| 2026-05-06 06:27 | 42.12463 | -74.08043 | 15735 ft | 297 kts | 202° |
| 2026-05-06 06:27 | 42.10489 | -74.08914 | 15491 ft | 299 kts | 202° |
| 2026-05-06 06:27 | 42.08534 | -74.09774 | 15239 ft | 295 kts | 202° |
| 2026-05-06 06:27 | 42.06590 | -74.10629 | 14996 ft | 294 kts | 202° |
| 2026-05-06 06:28 | 42.04636 | -74.11483 | 14750 ft | 294 kts | 202° |
| 2026-05-06 06:28 | 42.02713 | -74.12327 | 14502 ft | 293 kts | 202° |
| 2026-05-06 06:28 | 42.00769 | -74.13184 | 14259 ft | 291 kts | 202° |
| 2026-05-06 06:28 | 41.98849 | -74.14027 | 13950 ft | 299 kts | 202° |
| 2026-05-06 06:29 | 41.96773 | -74.14944 | 13477 ft | 328 kts | 202° |
| 2026-05-06 06:29 | 41.94583 | -74.15903 | 12945 ft | 335 kts | 202° |
| 2026-05-06 06:29 | 41.92340 | -74.16882 | 12322 ft | 338 kts | 202° |
| 2026-05-06 06:29 | 41.90162 | -74.17829 | 11999 ft | 319 kts | 202° |
| 2026-05-06 06:30 | 41.88133 | -74.18710 | 11954 ft | 296 kts | 202° |
| 2026-05-06 06:30 | 41.86206 | -74.19552 | 11785 ft | 286 kts | 202° |
| 2026-05-06 06:30 | 41.84321 | -74.20377 | 11284 ft | 287 kts | 202° |
| 2026-05-06 06:30 | 41.82434 | -74.21198 | 10843 ft | 281 kts | 202° |
| 2026-05-06 06:31 | 41.80603 | -74.21999 | 10439 ft | 277 kts | 202° |
| 2026-05-06 06:31 | 41.78767 | -74.22804 | 10088 ft | 275 kts | 203° |
| 2026-05-06 06:31 | 41.76955 | -74.23595 | 9773 ft | 275 kts | 203° |
| 2026-05-06 06:31 | 41.75141 | -74.24383 | 9552 ft | 274 kts | 203° |
| 2026-05-06 06:32 | 41.73338 | -74.25165 | 9238 ft | 272 kts | 203° |
| 2026-05-06 06:32 | 41.71563 | -74.25938 | 8991 ft | 262 kts | 203° |
| 2026-05-06 06:32 | 41.69827 | -74.26693 | 8908 ft | 262 kts | 203° |
| 2026-05-06 06:32 | 41.68116 | -74.27436 | 8677 ft | 257 kts | 203° |
| 2026-05-06 06:33 | 41.66405 | -74.28184 | 8410 ft | 260 kts | 203° |
| 2026-05-06 06:33 | 41.64713 | -74.28915 | 8289 ft | 253 kts | 203° |
| 2026-05-06 06:33 | 41.63026 | -74.29649 | 8216 ft | 254 kts | 204° |
| 2026-05-06 06:33 | 41.61335 | -74.30379 | 8162 ft | 257 kts | 203° |
| 2026-05-06 06:34 | 41.59636 | -74.31119 | 8082 ft | 258 kts | 203° |
| 2026-05-06 06:34 | 41.57925 | -74.31860 | 7973 ft | 256 kts | 203° |
| 2026-05-06 06:34 | 41.56240 | -74.32591 | 7890 ft | 254 kts | 204° |
| 2026-05-06 06:34 | 41.54562 | -74.33318 | 7789 ft | 254 kts | 203° |
| 2026-05-06 06:35 | 41.52885 | -74.34042 | 7717 ft | 257 kts | 203° |
| 2026-05-06 06:35 | 41.51122 | -74.34804 | 7619 ft | 269 kts | 203° |
| 2026-05-06 06:35 | 41.49359 | -74.35558 | 7450 ft | 268 kts | 203° |
| 2026-05-06 06:35 | 41.47593 | -74.36317 | 7285 ft | 263 kts | 203° |
| 2026-05-06 06:36 | 41.45851 | -74.37067 | 7189 ft | 261 kts | 204° |
| 2026-05-06 06:36 | 41.44111 | -74.37824 | 7067 ft | 261 kts | 203° |
| 2026-05-06 06:36 | 41.42383 | -74.38569 | 6976 ft | 262 kts | 203° |
| 2026-05-06 06:36 | 41.40666 | -74.39307 | 6972 ft | 261 kts | 203° |
| 2026-05-06 06:37 | 41.38919 | -74.40062 | 6961 ft | 261 kts | 203° |
| 2026-05-06 06:37 | 41.37194 | -74.40801 | 6953 ft | 258 kts | 203° |
| 2026-05-06 06:37 | 41.35477 | -74.41541 | 6791 ft | 262 kts | 203° |
| 2026-05-06 06:37 | 41.33745 | -74.42285 | 6773 ft | 261 kts | 203° |
| 2026-05-06 06:38 | 41.31995 | -74.43018 | 6749 ft | 261 kts | 199° |
| 2026-05-06 06:38 | 41.30169 | -74.43103 | 6671 ft | 275 kts | 173° |
| 2026-05-06 06:38 | 41.28383 | -74.42050 | 6621 ft | 285 kts | 154° |
| 2026-05-06 06:38 | 41.26723 | -74.40610 | 6584 ft | 285 kts | 153° |
| 2026-05-06 06:39 | 41.25052 | -74.39155 | 6539 ft | 286 kts | 153° |
| 2026-05-06 06:39 | 41.23398 | -74.37721 | 6494 ft | 286 kts | 153° |
| 2026-05-06 06:39 | 41.21739 | -74.36273 | 6415 ft | 285 kts | 153° |
| 2026-05-06 06:39 | 41.20088 | -74.34831 | 6259 ft | 287 kts | 153° |
| 2026-05-06 06:40 | 41.18426 | -74.33385 | 6243 ft | 285 kts | 153° |
| 2026-05-06 06:40 | 41.16758 | -74.31928 | 6132 ft | 282 kts | 153° |
| 2026-05-06 06:40 | 41.15112 | -74.30490 | 5868 ft | 285 kts | 153° |
| 2026-05-06 06:40 | 41.13465 | -74.29047 | 5736 ft | 282 kts | 153° |
| 2026-05-06 06:41 | 41.11859 | -74.27628 | 5459 ft | 275 kts | 150° |
| 2026-05-06 06:41 | 41.10408 | -74.26009 | 5202 ft | 271 kts | 143° |
| 2026-05-06 06:41 | 41.09056 | -74.24324 | 4936 ft | 265 kts | 143° |
| 2026-05-06 06:41 | 41.07742 | -74.22661 | 4752 ft | 255 kts | 143° |
| 2026-05-06 06:42 | 41.06485 | -74.21047 | 4653 ft | 249 kts | 142° |
| 2026-05-06 06:42 | 41.05253 | -74.19460 | 4544 ft | 247 kts | 142° |
| 2026-05-06 06:42 | 41.04031 | -74.17887 | 4410 ft | 246 kts | 143° |
| 2026-05-06 06:42 | 41.02812 | -74.16316 | 4279 ft | 245 kts | 143° |
| 2026-05-06 06:43 | 41.01596 | -74.14739 | 4147 ft | 245 kts | 142° |
| 2026-05-06 06:43 | 41.00392 | -74.13184 | 4084 ft | 240 kts | 143° |
| 2026-05-06 06:43 | 40.99183 | -74.11613 | 3985 ft | 243 kts | 142° |
| 2026-05-06 06:43 | 40.97973 | -74.10134 | 3865 ft | 241 kts | 147° |
| 2026-05-06 06:44 | 40.96703 | -74.08742 | 3728 ft | 238 kts | 148° |
| 2026-05-06 06:44 | 40.95346 | -74.07504 | 3595 ft | 233 kts | 157° |
| 2026-05-06 06:44 | 40.93956 | -74.06445 | 3469 ft | 232 kts | 158° |
| 2026-05-06 06:44 | 40.92554 | -74.05372 | 3341 ft | 231 kts | 158° |
| 2026-05-06 06:45 | 40.91163 | -74.04292 | 3206 ft | 231 kts | 158° |
| 2026-05-06 06:45 | 40.89767 | -74.03357 | 3042 ft | 216 kts | 174° |
| 2026-05-06 06:45 | 40.88418 | -74.03577 | 2994 ft | 183 kts | 215° |
| 2026-05-06 06:45 | 40.87403 | -74.04462 | 3012 ft | 167 kts | 218° |
| 2026-05-06 06:46 | 40.86425 | -74.05239 | 2964 ft | 160 kts | 216° |
| 2026-05-06 06:46 | 40.85469 | -74.05951 | 2985 ft | 158 kts | 215° |
| 2026-05-06 06:46 | 40.84481 | -74.06661 | 3006 ft | 163 kts | 214° |
| 2026-05-06 06:46 | 40.83468 | -74.07355 | 2972 ft | 164 kts | 213° |
| 2026-05-06 06:47 | 40.82424 | -74.08060 | 2763 ft | 166 kts | 212° |
| 2026-05-06 06:47 | 40.81428 | -74.08720 | 2559 ft | 160 kts | 212° |
| 2026-05-06 06:47 | 40.80422 | -74.09381 | 2345 ft | 160 kts | 212° |
| 2026-05-06 06:47 | 40.79438 | -74.10006 | 2123 ft | 155 kts | 211° |
| 2026-05-06 06:48 | 40.78453 | -74.10633 | 1927 ft | 158 kts | 211° |
| 2026-05-06 06:48 | 40.77454 | -74.11272 | 1711 ft | 160 kts | 211° |
| 2026-05-06 06:48 | 40.76452 | -74.11916 | 1491 ft | 162 kts | 210° |
| 2026-05-06 06:48 | 40.75470 | -74.12530 | 1256 ft | 147 kts | 209° |
| 2026-05-06 06:49 | 40.74606 | -74.13084 | 1176 ft | 138 kts | 211° |
| 2026-05-06 06:49 | 40.73701 | -74.13665 | 962 ft | 147 kts | 208° |
| 2026-05-06 06:49 | 40.72781 | -74.14238 | 726 ft | 148 kts | 207° |
| 2026-05-06 06:49 | 40.71847 | -74.14821 | 514 ft | 149 kts | 208° |
| 2026-05-06 06:50 | 40.70913 | -74.15432 | 308 ft | 152 kts | 208° |
| 2026-05-06 06:50 | 40.69952 | -74.16037 | 105 ft | 153 kts | 205° |
| 2026-05-06 06:50 | 40.69031 | -74.16657 | 28 ft | 131 kts | 206° |
| 2026-05-06 06:50 | 40.68399 | -74.17022 | 27 ft | 56 kts | 205° |
| 2026-05-06 06:51 | 40.68281 | -74.17151 | 27 ft | 20 kts | 237° |
| 2026-05-06 06:51 | 40.68190 | -74.17329 | 27 ft | 12 kts | 236° |
| 2026-05-06 06:51 | 40.68150 | -74.17442 | 27 ft | 15 kts | 269° |
| 2026-05-06 06:51 | 40.68193 | -74.17575 | 27 ft | 16 kts | 296° |
| 2026-05-06 06:52 | 40.68256 | -74.17680 | 27 ft | 14 kts | 322° |
| 2026-05-06 06:52 | 40.68358 | -74.17704 | 27 ft | 16 kts | 24° |
| 2026-05-06 06:52 | 40.68471 | -74.17631 | 27 ft | 19 kts | 27° |
| 2026-05-06 06:52 | 40.68603 | -74.17545 | 27 ft | 22 kts | 26° |
| 2026-05-06 06:53 | 40.68745 | -74.17455 | 27 ft | 24 kts | 25° |
| 2026-05-06 06:53 | 40.68902 | -74.17354 | 27 ft | 25 kts | 26° |
| 2026-05-06 06:53 | 40.69069 | -74.17247 | 27 ft | 27 kts | 25° |
| 2026-05-06 06:53 | 40.69219 | -74.17155 | 27 ft | 18 kts | 25° |
| 2026-05-06 06:54 | 40.69347 | -74.17081 | 27 ft | 21 kts | 15° |
| 2026-05-06 06:54 | 40.69500 | -74.17075 | 27 ft | 19 kts | 351° |
| 2026-05-06 06:54 | 40.69638 | -74.17123 | 27 ft | 21 kts | 337° |
| 2026-05-06 06:54 | 40.69762 | -74.17230 | 27 ft | 20 kts | 316° |
| 2026-05-06 06:55 | 40.69856 | -74.17368 | 27 ft | 20 kts | 304° |
| 2026-05-06 06:55 | 40.69896 | -74.17491 | 27 ft | 9 kts | 287° |
| 2026-05-06 06:55 | 40.69897 | -74.17586 | 27 ft | 11 kts | 248° |
| 2026-05-06 06:55 | 40.69841 | -74.17668 | 27 ft | 12 kts | 225° |
| 2026-05-06 06:56 | 40.69830 | -74.17683 | 27 ft | 1 kts | 241° |
| 2026-05-06 06:56 | 40.69830 | -74.17694 | 27 ft | 1 kts | 281° |
| 2026-05-06 06:56 | 40.69840 | -74.17705 | 27 ft | 2 kts | 342° |
| 2026-05-06 06:56 | 40.69867 | -74.17679 | 27 ft | 9 kts | 52° |
| 2026-05-06 06:57 | 40.69920 | -74.17633 | 27 ft | 7 kts | 354° |
| 2026-05-06 06:57 | 40.69964 | -74.17681 | 27 ft | 9 kts | 307° |
| 2026-05-06 06:57 | 40.69984 | -74.17773 | 27 ft | 11 kts | 277° |
| 2026-05-06 06:57 | 40.69990 | -74.17853 | 27 ft | 5 kts | 262° |
| 2026-05-06 06:58 | 40.69971 | -74.17873 | 27 ft | 4 kts | 180° |
| 2026-05-06 06:58 | 40.69941 | -74.17876 | 27 ft | 4 kts | 184° |
| 2026-05-06 06:58 | 40.69929 | -74.17876 | 27 ft | 0 kts | 183° |